sensor_id;sensor_type;location;lat;lon;timestamp;P1;durP1;ratioP1;P2;durP2;ratioP2
44750;SDS011;30477;48.224;11.470;2022-08-20T00:02:22;19.23;;;17.08;;
44750;SDS011;30477;48.224;11.470;2022-08-20T00:04:48;18.30;;;16.57;;
44750;SDS011;30477;48.224;11.470;2022-08-20T00:07:13;18.83;;;16.83;;
44750;SDS011;30477;48.224;11.470;2022-08-20T00:09:39;21.27;;;18.35;;
44750;SDS011;30477;48.224;11.470;2022-08-20T00:12:06;20.27;;;17.73;;
44750;SDS011;30477;48.224;11.470;2022-08-20T00:14:33;19.73;;;17.65;;
44750;SDS011;30477;48.224;11.470;2022-08-20T00:16:59;18.77;;;16.77;;
44750;SDS011;30477;48.224;11.470;2022-08-20T00:19:25;19.75;;;17.75;;
44750;SDS011;30477;48.224;11.470;2022-08-20T00:21:50;21.97;;;18.07;;
44750;SDS011;30477;48.224;11.470;2022-08-20T00:24:16;22.17;;;19.00;;
44750;SDS011;30477;48.224;11.470;2022-08-20T00:26:41;19.23;;;17.23;;
44750;SDS011;30477;48.224;11.470;2022-08-20T00:29:06;20.10;;;18.00;;
44750;SDS011;30477;48.224;11.470;2022-08-20T00:31:32;21.30;;;18.70;;
44750;SDS011;30477;48.224;11.470;2022-08-20T00:33:57;20.43;;;18.20;;
44750;SDS011;30477;48.224;11.470;2022-08-20T00:36:23;21.13;;;18.40;;
44750;SDS011;30477;48.224;11.470;2022-08-20T00:38:48;21.97;;;19.40;;
44750;SDS011;30477;48.224;11.470;2022-08-20T00:41:16;22.03;;;19.67;;
44750;SDS011;30477;48.224;11.470;2022-08-20T00:48:48;24.58;;;21.42;;
44750;SDS011;30477;48.224;11.470;2022-08-20T00:51:20;25.48;;;21.55;;
44750;SDS011;30477;48.224;11.470;2022-08-20T00:54:10;24.42;;;21.00;;
44750;SDS011;30477;48.224;11.470;2022-08-20T00:56:39;24.20;;;21.33;;
44750;SDS011;30477;48.224;11.470;2022-08-20T00:59:08;23.88;;;21.35;;
44750;SDS011;30477;48.224;11.470;2022-08-20T01:01:37;24.60;;;21.48;;
44750;SDS011;30477;48.224;11.470;2022-08-20T01:04:04;26.17;;;21.67;;
44750;SDS011;30477;48.224;11.470;2022-08-20T01:06:29;24.33;;;21.70;;
44750;SDS011;30477;48.224;11.470;2022-08-20T01:08:55;28.15;;;23.35;;
44750;SDS011;30477;48.224;11.470;2022-08-20T01:11:21;26.65;;;23.80;;
44750;SDS011;30477;48.224;11.470;2022-08-20T01:13:56;26.35;;;23.10;;
44750;SDS011;30477;48.224;11.470;2022-08-20T01:18:51;25.65;;;22.38;;
44750;SDS011;30477;48.224;11.470;2022-08-20T01:23:56;26.08;;;23.20;;
44750;SDS011;30477;48.224;11.470;2022-08-20T01:26:30;30.17;;;23.48;;
44750;SDS011;30477;48.224;11.470;2022-08-20T01:29:02;27.02;;;23.80;;
44750;SDS011;30477;48.224;11.470;2022-08-20T01:31:30;26.52;;;23.52;;
44750;SDS011;30477;48.224;11.470;2022-08-20T01:33:58;28.85;;;24.05;;
44750;SDS011;30477;48.224;11.470;2022-08-20T01:36:30;27.92;;;23.52;;
44750;SDS011;30477;48.224;11.470;2022-08-20T01:39:00;28.70;;;23.50;;
44750;SDS011;30477;48.224;11.470;2022-08-20T01:41:41;28.85;;;24.77;;
44750;SDS011;30477;48.224;11.470;2022-08-20T01:44:13;30.50;;;25.00;;
44750;SDS011;30477;48.224;11.470;2022-08-20T01:46:40;29.35;;;24.55;;
44750;SDS011;30477;48.224;11.470;2022-08-20T01:51:54;31.33;;;24.80;;
44750;SDS011;30477;48.224;11.470;2022-08-20T01:54:23;29.73;;;25.25;;
44750;SDS011;30477;48.224;11.470;2022-08-20T01:56:58;30.15;;;24.73;;
44750;SDS011;30477;48.224;11.470;2022-08-20T01:59:27;28.38;;;24.08;;
44750;SDS011;30477;48.224;11.470;2022-08-20T02:01:53;31.50;;;25.20;;
44750;SDS011;30477;48.224;11.470;2022-08-20T02:06:49;31.55;;;25.00;;
44750;SDS011;30477;48.224;11.470;2022-08-20T02:09:18;32.00;;;24.92;;
44750;SDS011;30477;48.224;11.470;2022-08-20T02:11:44;31.40;;;24.80;;
44750;SDS011;30477;48.224;11.470;2022-08-20T02:14:11;28.20;;;24.50;;
44750;SDS011;30477;48.224;11.470;2022-08-20T02:21:37;29.70;;;25.63;;
44750;SDS011;30477;48.224;11.470;2022-08-20T02:24:07;30.40;;;26.17;;
44750;SDS011;30477;48.224;11.470;2022-08-20T02:26:33;28.98;;;25.35;;
44750;SDS011;30477;48.224;11.470;2022-08-20T02:29:02;30.98;;;25.70;;
44750;SDS011;30477;48.224;11.470;2022-08-20T02:31:30;30.70;;;25.45;;
44750;SDS011;30477;48.224;11.470;2022-08-20T02:33:55;32.10;;;26.03;;
44750;SDS011;30477;48.224;11.470;2022-08-20T02:36:20;31.27;;;26.53;;
44750;SDS011;30477;48.224;11.470;2022-08-20T02:38:46;31.15;;;26.63;;
44750;SDS011;30477;48.224;11.470;2022-08-20T02:41:12;33.45;;;26.48;;
44750;SDS011;30477;48.224;11.470;2022-08-20T02:43:39;31.17;;;26.67;;
44750;SDS011;30477;48.224;11.470;2022-08-20T02:46:05;31.97;;;26.53;;
44750;SDS011;30477;48.224;11.470;2022-08-20T02:48:31;31.13;;;26.27;;
44750;SDS011;30477;48.224;11.470;2022-08-20T02:53:29;32.45;;;25.83;;
44750;SDS011;30477;48.224;11.470;2022-08-20T02:55:56;31.45;;;25.90;;
44750;SDS011;30477;48.224;11.470;2022-08-20T02:58:22;35.15;;;25.80;;
44750;SDS011;30477;48.224;11.470;2022-08-20T03:00:48;29.53;;;24.53;;
44750;SDS011;30477;48.224;11.470;2022-08-20T03:03:13;29.85;;;25.58;;
44750;SDS011;30477;48.224;11.470;2022-08-20T03:05:41;32.95;;;26.08;;
44750;SDS011;30477;48.224;11.470;2022-08-20T03:08:09;30.77;;;25.60;;
44750;SDS011;30477;48.224;11.470;2022-08-20T03:10:37;31.13;;;26.25;;
44750;SDS011;30477;48.224;11.470;2022-08-20T03:13:04;33.10;;;27.02;;
44750;SDS011;30477;48.224;11.470;2022-08-20T03:15:31;32.78;;;26.70;;
44750;SDS011;30477;48.224;11.470;2022-08-20T03:17:57;30.33;;;25.60;;
44750;SDS011;30477;48.224;11.470;2022-08-20T03:20:23;34.43;;;27.03;;
44750;SDS011;30477;48.224;11.470;2022-08-20T03:22:49;30.38;;;24.85;;
44750;SDS011;30477;48.224;11.470;2022-08-20T03:25:15;30.40;;;23.88;;
44750;SDS011;30477;48.224;11.470;2022-08-20T03:27:41;29.55;;;24.30;;
44750;SDS011;30477;48.224;11.470;2022-08-20T03:30:08;28.30;;;24.03;;
44750;SDS011;30477;48.224;11.470;2022-08-20T03:32:35;30.00;;;24.77;;
44750;SDS011;30477;48.224;11.470;2022-08-20T03:35:00;28.42;;;24.98;;
44750;SDS011;30477;48.224;11.470;2022-08-20T03:37:30;30.67;;;26.07;;
44750;SDS011;30477;48.224;11.470;2022-08-20T03:39:56;28.30;;;25.23;;
44750;SDS011;30477;48.224;11.470;2022-08-20T03:42:22;29.98;;;24.98;;
44750;SDS011;30477;48.224;11.470;2022-08-20T03:44:47;29.67;;;24.90;;
44750;SDS011;30477;48.224;11.470;2022-08-20T03:47:13;29.07;;;25.30;;
44750;SDS011;30477;48.224;11.470;2022-08-20T03:49:38;30.70;;;25.40;;
44750;SDS011;30477;48.224;11.470;2022-08-20T03:52:04;32.77;;;26.13;;
44750;SDS011;30477;48.224;11.470;2022-08-20T03:54:29;30.00;;;25.63;;
44750;SDS011;30477;48.224;11.470;2022-08-20T03:56:54;29.57;;;23.93;;
44750;SDS011;30477;48.224;11.470;2022-08-20T03:59:20;28.67;;;24.05;;
44750;SDS011;30477;48.224;11.470;2022-08-20T04:01:46;28.70;;;23.87;;
44750;SDS011;30477;48.224;11.470;2022-08-20T04:04:11;27.43;;;24.53;;
44750;SDS011;30477;48.224;11.470;2022-08-20T04:06:36;27.73;;;23.63;;
44750;SDS011;30477;48.224;11.470;2022-08-20T04:09:02;27.07;;;23.77;;
44750;SDS011;30477;48.224;11.470;2022-08-20T04:11:28;28.00;;;24.05;;
44750;SDS011;30477;48.224;11.470;2022-08-20T04:13:53;26.60;;;23.70;;
44750;SDS011;30477;48.224;11.470;2022-08-20T04:16:18;27.60;;;23.13;;
44750;SDS011;30477;48.224;11.470;2022-08-20T04:18:44;30.27;;;23.37;;
44750;SDS011;30477;48.224;11.470;2022-08-20T04:21:09;27.03;;;21.93;;
44750;SDS011;30477;48.224;11.470;2022-08-20T04:23:34;25.97;;;22.90;;
44750;SDS011;30477;48.224;11.470;2022-08-20T04:26:00;25.10;;;22.37;;
44750;SDS011;30477;48.224;11.470;2022-08-20T04:28:25;26.43;;;23.27;;
44750;SDS011;30477;48.224;11.470;2022-08-20T04:30:59;27.35;;;23.38;;
44750;SDS011;30477;48.224;11.470;2022-08-20T04:33:26;27.20;;;23.70;;
44750;SDS011;30477;48.224;11.470;2022-08-20T04:35:56;27.20;;;22.98;;
44750;SDS011;30477;48.224;11.470;2022-08-20T04:38:24;28.65;;;23.08;;
44750;SDS011;30477;48.224;11.470;2022-08-20T04:40:50;27.17;;;22.67;;
44750;SDS011;30477;48.224;11.470;2022-08-20T04:43:32;26.92;;;22.70;;
44750;SDS011;30477;48.224;11.470;2022-08-20T04:46:01;25.70;;;22.77;;
44750;SDS011;30477;48.224;11.470;2022-08-20T04:48:30;24.83;;;22.13;;
44750;SDS011;30477;48.224;11.470;2022-08-20T04:50:57;23.85;;;21.25;;
44750;SDS011;30477;48.224;11.470;2022-08-20T04:55:50;23.88;;;20.98;;
44750;SDS011;30477;48.224;11.470;2022-08-20T04:58:24;23.63;;;21.10;;
44750;SDS011;30477;48.224;11.470;2022-08-20T05:00:53;25.33;;;21.33;;
44750;SDS011;30477;48.224;11.470;2022-08-20T05:03:19;24.33;;;20.98;;
44750;SDS011;30477;48.224;11.470;2022-08-20T05:05:45;23.67;;;21.17;;
44750;SDS011;30477;48.224;11.470;2022-08-20T05:08:11;26.40;;;21.80;;
44750;SDS011;30477;48.224;11.470;2022-08-20T05:10:39;26.30;;;21.83;;
44750;SDS011;30477;48.224;11.470;2022-08-20T05:13:05;25.63;;;21.90;;
44750;SDS011;30477;48.224;11.470;2022-08-20T05:15:31;25.15;;;20.92;;
44750;SDS011;30477;48.224;11.470;2022-08-20T05:17:58;24.40;;;21.27;;
44750;SDS011;30477;48.224;11.470;2022-08-20T05:20:26;25.27;;;19.70;;
44750;SDS011;30477;48.224;11.470;2022-08-20T05:22:59;27.42;;;21.17;;
44750;SDS011;30477;48.224;11.470;2022-08-20T05:25:26;23.08;;;19.60;;
44750;SDS011;30477;48.224;11.470;2022-08-20T05:27:58;23.08;;;20.23;;
44750;SDS011;30477;48.224;11.470;2022-08-20T05:30:26;22.08;;;19.02;;
44750;SDS011;30477;48.224;11.470;2022-08-20T05:33:01;22.02;;;19.63;;
44750;SDS011;30477;48.224;11.470;2022-08-20T05:35:29;24.55;;;20.80;;
44750;SDS011;30477;48.224;11.470;2022-08-20T05:37:55;24.83;;;19.50;;
44750;SDS011;30477;48.224;11.470;2022-08-20T05:40:21;23.10;;;19.08;;
44750;SDS011;30477;48.224;11.470;2022-08-20T05:42:48;22.65;;;18.58;;
44750;SDS011;30477;48.224;11.470;2022-08-20T05:45:14;21.80;;;19.40;;
44750;SDS011;30477;48.224;11.470;2022-08-20T05:47:41;19.23;;;17.15;;
44750;SDS011;30477;48.224;11.470;2022-08-20T05:50:07;22.90;;;18.38;;
44750;SDS011;30477;48.224;11.470;2022-08-20T05:52:34;20.58;;;18.08;;
44750;SDS011;30477;48.224;11.470;2022-08-20T05:55:00;20.52;;;17.23;;
44750;SDS011;30477;48.224;11.470;2022-08-20T05:57:25;20.50;;;18.30;;
44750;SDS011;30477;48.224;11.470;2022-08-20T05:59:51;20.73;;;17.63;;
44750;SDS011;30477;48.224;11.470;2022-08-20T06:05:01;21.15;;;17.35;;
44750;SDS011;30477;48.224;11.470;2022-08-20T06:07:27;23.13;;;18.13;;
44750;SDS011;30477;48.224;11.470;2022-08-20T06:09:52;25.70;;;18.47;;
44750;SDS011;30477;48.224;11.470;2022-08-20T06:12:17;22.27;;;18.43;;
44750;SDS011;30477;48.224;11.470;2022-08-20T06:14:43;22.07;;;17.63;;
44750;SDS011;30477;48.224;11.470;2022-08-20T06:17:12;20.80;;;17.70;;
44750;SDS011;30477;48.224;11.470;2022-08-20T06:19:40;21.77;;;18.15;;
44750;SDS011;30477;48.224;11.470;2022-08-20T06:22:07;20.20;;;16.88;;
44750;SDS011;30477;48.224;11.470;2022-08-20T06:24:32;20.70;;;16.43;;
44750;SDS011;30477;48.224;11.470;2022-08-20T06:26:59;22.47;;;18.13;;
44750;SDS011;30477;48.224;11.470;2022-08-20T06:29:26;25.67;;;17.05;;
44750;SDS011;30477;48.224;11.470;2022-08-20T06:31:52;18.02;;;16.00;;
44750;SDS011;30477;48.224;11.470;2022-08-20T06:34:18;17.60;;;15.73;;
44750;SDS011;30477;48.224;11.470;2022-08-20T06:36:44;17.37;;;15.50;;
44750;SDS011;30477;48.224;11.470;2022-08-20T06:39:11;18.38;;;15.20;;
44750;SDS011;30477;48.224;11.470;2022-08-20T06:41:37;21.08;;;15.88;;
44750;SDS011;30477;48.224;11.470;2022-08-20T06:44:03;20.37;;;16.53;;
44750;SDS011;30477;48.224;11.470;2022-08-20T06:46:31;17.02;;;15.23;;
44750;SDS011;30477;48.224;11.470;2022-08-20T06:48:57;16.83;;;14.82;;
44750;SDS011;30477;48.224;11.470;2022-08-20T06:51:22;18.10;;;15.13;;
44750;SDS011;30477;48.224;11.470;2022-08-20T06:53:47;16.90;;;15.10;;
44750;SDS011;30477;48.224;11.470;2022-08-20T06:56:13;17.30;;;15.23;;
44750;SDS011;30477;48.224;11.470;2022-08-20T06:58:38;15.63;;;14.03;;
44750;SDS011;30477;48.224;11.470;2022-08-20T07:01:05;16.33;;;13.95;;
44750;SDS011;30477;48.224;11.470;2022-08-20T07:03:31;15.32;;;13.73;;
44750;SDS011;30477;48.224;11.470;2022-08-20T07:05:56;19.87;;;15.33;;
44750;SDS011;30477;48.224;11.470;2022-08-20T07:08:23;18.45;;;14.25;;
44750;SDS011;30477;48.224;11.470;2022-08-20T07:10:48;17.50;;;14.20;;
44750;SDS011;30477;48.224;11.470;2022-08-20T07:15:40;16.33;;;13.00;;
44750;SDS011;30477;48.224;11.470;2022-08-20T07:18:06;14.13;;;12.75;;
44750;SDS011;30477;48.224;11.470;2022-08-20T07:20:33;15.65;;;14.05;;
44750;SDS011;30477;48.224;11.470;2022-08-20T07:23:00;14.32;;;12.93;;
44750;SDS011;30477;48.224;11.470;2022-08-20T07:25:26;14.77;;;13.18;;
44750;SDS011;30477;48.224;11.470;2022-08-20T07:27:57;13.38;;;11.85;;
44750;SDS011;30477;48.224;11.470;2022-08-20T07:30:28;14.27;;;12.27;;
44750;SDS011;30477;48.224;11.470;2022-08-20T07:33:12;15.25;;;13.13;;
44750;SDS011;30477;48.224;11.470;2022-08-20T07:35:39;15.15;;;13.10;;
44750;SDS011;30477;48.224;11.470;2022-08-20T07:38:06;14.88;;;13.27;;
44750;SDS011;30477;48.224;11.470;2022-08-20T07:40:37;13.90;;;12.05;;
44750;SDS011;30477;48.224;11.470;2022-08-20T07:43:02;14.47;;;11.77;;
44750;SDS011;30477;48.224;11.470;2022-08-20T07:45:28;16.17;;;13.40;;
44750;SDS011;30477;48.224;11.470;2022-08-20T07:47:55;13.40;;;12.10;;
44750;SDS011;30477;48.224;11.470;2022-08-20T07:50:34;14.32;;;12.43;;
44750;SDS011;30477;48.224;11.470;2022-08-20T07:53:00;16.63;;;12.05;;
44750;SDS011;30477;48.224;11.470;2022-08-20T07:55:26;13.30;;;11.93;;
44750;SDS011;30477;48.224;11.470;2022-08-20T07:57:51;13.40;;;11.48;;
44750;SDS011;30477;48.224;11.470;2022-08-20T08:00:18;13.67;;;11.50;;
44750;SDS011;30477;48.224;11.470;2022-08-20T08:02:45;12.57;;;10.65;;
44750;SDS011;30477;48.224;11.470;2022-08-20T08:05:11;15.10;;;10.43;;
44750;SDS011;30477;48.224;11.470;2022-08-20T08:07:37;10.43;;;9.43;;
44750;SDS011;30477;48.224;11.470;2022-08-20T08:12:35;11.68;;;10.48;;
44750;SDS011;30477;48.224;11.470;2022-08-20T08:15:04;15.15;;;10.07;;
44750;SDS011;30477;48.224;11.470;2022-08-20T08:17:34;13.50;;;10.15;;
44750;SDS011;30477;48.224;11.470;2022-08-20T08:20:01;12.35;;;10.95;;
44750;SDS011;30477;48.224;11.470;2022-08-20T08:22:28;11.45;;;9.77;;
44750;SDS011;30477;48.224;11.470;2022-08-20T08:24:55;12.05;;;10.88;;
44750;SDS011;30477;48.224;11.470;2022-08-20T08:27:23;12.07;;;10.35;;
44750;SDS011;30477;48.224;11.470;2022-08-20T08:29:49;14.48;;;10.45;;
44750;SDS011;30477;48.224;11.470;2022-08-20T08:32:14;11.83;;;10.30;;
44750;SDS011;30477;48.224;11.470;2022-08-20T08:34:39;12.00;;;10.60;;
44750;SDS011;30477;48.224;11.470;2022-08-20T08:37:05;11.17;;;9.87;;
44750;SDS011;30477;48.224;11.470;2022-08-20T08:39:31;16.40;;;12.10;;
44750;SDS011;30477;48.224;11.470;2022-08-20T08:41:58;12.48;;;10.10;;
44750;SDS011;30477;48.224;11.470;2022-08-20T08:44:34;11.95;;;10.75;;
44750;SDS011;30477;48.224;11.470;2022-08-20T08:47:07;12.88;;;10.40;;
44750;SDS011;30477;48.224;11.470;2022-08-20T08:49:42;13.73;;;10.10;;
44750;SDS011;30477;48.224;11.470;2022-08-20T08:52:11;11.20;;;10.00;;
44750;SDS011;30477;48.224;11.470;2022-08-20T08:54:45;14.68;;;10.30;;
44750;SDS011;30477;48.224;11.470;2022-08-20T08:57:12;12.43;;;11.13;;
44750;SDS011;30477;48.224;11.470;2022-08-20T08:59:39;12.35;;;10.98;;
44750;SDS011;30477;48.224;11.470;2022-08-20T09:02:05;16.50;;;11.23;;
44750;SDS011;30477;48.224;11.470;2022-08-20T09:04:32;12.27;;;10.97;;
44750;SDS011;30477;48.224;11.470;2022-08-20T09:07:02;12.75;;;11.43;;
44750;SDS011;30477;48.224;11.470;2022-08-20T09:09:30;14.80;;;12.15;;
44750;SDS011;30477;48.224;11.470;2022-08-20T09:12:07;12.70;;;11.13;;
44750;SDS011;30477;48.224;11.470;2022-08-20T09:14:36;12.48;;;11.25;;
44750;SDS011;30477;48.224;11.470;2022-08-20T09:17:02;16.65;;;12.23;;
44750;SDS011;30477;48.224;11.470;2022-08-20T09:19:28;15.27;;;12.23;;
44750;SDS011;30477;48.224;11.470;2022-08-20T09:21:53;15.00;;;12.20;;
44750;SDS011;30477;48.224;11.470;2022-08-20T09:24:19;16.43;;;13.30;;
44750;SDS011;30477;48.224;11.470;2022-08-20T09:26:44;14.87;;;12.03;;
44750;SDS011;30477;48.224;11.470;2022-08-20T09:29:09;14.07;;;12.33;;
44750;SDS011;30477;48.224;11.470;2022-08-20T09:31:35;17.37;;;13.13;;
44750;SDS011;30477;48.224;11.470;2022-08-20T09:34:01;15.85;;;12.65;;
44750;SDS011;30477;48.224;11.470;2022-08-20T09:36:27;14.48;;;13.07;;
44750;SDS011;30477;48.224;11.470;2022-08-20T09:38:52;15.50;;;13.10;;
44750;SDS011;30477;48.224;11.470;2022-08-20T09:41:18;17.63;;;14.55;;
44750;SDS011;30477;48.224;11.470;2022-08-20T09:43:43;16.17;;;14.17;;
44750;SDS011;30477;48.224;11.470;2022-08-20T09:46:09;17.07;;;14.30;;
44750;SDS011;30477;48.224;11.470;2022-08-20T09:48:34;17.50;;;14.30;;
44750;SDS011;30477;48.224;11.470;2022-08-20T09:50:59;16.73;;;15.00;;
44750;SDS011;30477;48.224;11.470;2022-08-20T09:53:26;16.17;;;14.50;;
44750;SDS011;30477;48.224;11.470;2022-08-20T09:55:52;16.75;;;14.95;;
44750;SDS011;30477;48.224;11.470;2022-08-20T10:00:51;19.50;;;17.38;;
44750;SDS011;30477;48.224;11.470;2022-08-20T10:03:17;22.63;;;17.38;;
44750;SDS011;30477;48.224;11.470;2022-08-20T10:08:09;17.60;;;15.65;;
44750;SDS011;30477;48.224;11.470;2022-08-20T10:10:35;17.92;;;16.08;;
44750;SDS011;30477;48.224;11.470;2022-08-20T10:13:01;19.13;;;16.70;;
44750;SDS011;30477;48.224;11.470;2022-08-20T10:15:27;19.25;;;17.40;;
44750;SDS011;30477;48.224;11.470;2022-08-20T10:17:53;19.73;;;17.50;;
44750;SDS011;30477;48.224;11.470;2022-08-20T10:20:18;18.23;;;16.43;;
44750;SDS011;30477;48.224;11.470;2022-08-20T10:22:44;17.08;;;15.32;;
44750;SDS011;30477;48.224;11.470;2022-08-20T10:25:10;17.83;;;16.20;;
44750;SDS011;30477;48.224;11.470;2022-08-20T10:27:36;19.40;;;16.45;;
44750;SDS011;30477;48.224;11.470;2022-08-20T10:30:03;19.05;;;15.90;;
44750;SDS011;30477;48.224;11.470;2022-08-20T10:32:30;17.92;;;16.02;;
44750;SDS011;30477;48.224;11.470;2022-08-20T10:34:55;17.88;;;16.00;;
44750;SDS011;30477;48.224;11.470;2022-08-20T10:37:21;18.60;;;16.77;;
44750;SDS011;30477;48.224;11.470;2022-08-20T10:39:48;18.63;;;16.73;;
44750;SDS011;30477;48.224;11.470;2022-08-20T10:42:13;19.20;;;16.47;;
44750;SDS011;30477;48.224;11.470;2022-08-20T10:44:39;19.33;;;17.33;;
44750;SDS011;30477;48.224;11.470;2022-08-20T10:49:44;19.10;;;17.20;;
44750;SDS011;30477;48.224;11.470;2022-08-20T10:54:36;17.93;;;16.17;;
44750;SDS011;30477;48.224;11.470;2022-08-20T10:57:05;19.45;;;17.55;;
44750;SDS011;30477;48.224;11.470;2022-08-20T10:59:30;17.57;;;15.53;;
44750;SDS011;30477;48.224;11.470;2022-08-20T11:01:56;17.33;;;15.57;;
44750;SDS011;30477;48.224;11.470;2022-08-20T11:04:21;19.83;;;16.47;;
44750;SDS011;30477;48.224;11.470;2022-08-20T11:06:46;17.53;;;15.60;;
44750;SDS011;30477;48.224;11.470;2022-08-20T11:09:12;18.20;;;16.50;;
44750;SDS011;30477;48.224;11.470;2022-08-20T11:11:37;17.70;;;15.90;;
44750;SDS011;30477;48.224;11.470;2022-08-20T11:14:02;17.67;;;15.90;;
44750;SDS011;30477;48.224;11.470;2022-08-20T11:16:28;19.10;;;17.20;;
44750;SDS011;30477;48.224;11.470;2022-08-20T11:18:54;18.55;;;16.75;;
44750;SDS011;30477;48.224;11.470;2022-08-20T11:21:19;20.30;;;16.73;;
44750;SDS011;30477;48.224;11.470;2022-08-20T11:23:45;19.57;;;17.67;;
44750;SDS011;30477;48.224;11.470;2022-08-20T11:26:11;18.67;;;16.33;;
44750;SDS011;30477;48.224;11.470;2022-08-20T11:28:45;18.33;;;16.65;;
44750;SDS011;30477;48.224;11.470;2022-08-20T11:31:11;20.50;;;17.27;;
44750;SDS011;30477;48.224;11.470;2022-08-20T11:33:36;19.03;;;15.80;;
44750;SDS011;30477;48.224;11.470;2022-08-20T11:36:01;18.57;;;15.37;;
44750;SDS011;30477;48.224;11.470;2022-08-20T11:38:27;17.65;;;15.88;;
44750;SDS011;30477;48.224;11.470;2022-08-20T11:40:52;16.17;;;14.57;;
44750;SDS011;30477;48.224;11.470;2022-08-20T11:43:18;18.00;;;16.10;;
44750;SDS011;30477;48.224;11.470;2022-08-20T11:45:47;18.30;;;16.50;;
44750;SDS011;30477;48.224;11.470;2022-08-20T11:48:16;17.75;;;15.93;;
44750;SDS011;30477;48.224;11.470;2022-08-20T11:50:42;19.52;;;17.13;;
44750;SDS011;30477;48.224;11.470;2022-08-20T11:53:08;19.45;;;15.93;;
44750;SDS011;30477;48.224;11.470;2022-08-20T11:55:33;17.17;;;15.37;;
44750;SDS011;30477;48.224;11.470;2022-08-20T11:58:00;18.73;;;16.92;;
44750;SDS011;30477;48.224;11.470;2022-08-20T12:00:26;19.33;;;17.52;;
44750;SDS011;30477;48.224;11.470;2022-08-20T12:02:53;20.63;;;18.48;;
44750;SDS011;30477;48.224;11.470;2022-08-20T12:05:18;19.10;;;16.73;;
44750;SDS011;30477;48.224;11.470;2022-08-20T12:07:44;20.02;;;18.10;;
44750;SDS011;30477;48.224;11.470;2022-08-20T12:10:10;19.77;;;17.67;;
44750;SDS011;30477;48.224;11.470;2022-08-20T12:12:36;20.35;;;18.15;;
44750;SDS011;30477;48.224;11.470;2022-08-20T12:15:03;20.88;;;18.77;;
44750;SDS011;30477;48.224;11.470;2022-08-20T12:17:30;19.48;;;17.67;;
44750;SDS011;30477;48.224;11.470;2022-08-20T12:22:23;18.10;;;16.27;;
44750;SDS011;30477;48.224;11.470;2022-08-20T12:24:48;19.80;;;17.85;;
44750;SDS011;30477;48.224;11.470;2022-08-20T12:27:16;18.88;;;17.02;;
44750;SDS011;30477;48.224;11.470;2022-08-20T12:29:47;19.83;;;17.27;;
44750;SDS011;30477;48.224;11.470;2022-08-20T12:32:16;19.27;;;17.48;;
44750;SDS011;30477;48.224;11.470;2022-08-20T12:34:41;17.93;;;16.27;;
44750;SDS011;30477;48.224;11.470;2022-08-20T12:37:08;18.30;;;16.52;;
44750;SDS011;30477;48.224;11.470;2022-08-20T12:39:36;17.58;;;15.80;;
44750;SDS011;30477;48.224;11.470;2022-08-20T12:42:03;18.13;;;16.25;;
44750;SDS011;30477;48.224;11.470;2022-08-20T12:44:29;17.73;;;15.82;;
44750;SDS011;30477;48.224;11.470;2022-08-20T12:47:08;18.17;;;16.38;;
44750;SDS011;30477;48.224;11.470;2022-08-20T12:49:37;19.42;;;17.33;;
44750;SDS011;30477;48.224;11.470;2022-08-20T12:52:05;17.77;;;15.40;;
44750;SDS011;30477;48.224;11.470;2022-08-20T12:54:30;16.23;;;14.65;;
44750;SDS011;30477;48.224;11.470;2022-08-20T12:56:56;15.23;;;13.73;;
44750;SDS011;30477;48.224;11.470;2022-08-20T12:59:22;15.60;;;13.23;;
44750;SDS011;30477;48.224;11.470;2022-08-20T13:01:48;13.32;;;11.95;;
44750;SDS011;30477;48.224;11.470;2022-08-20T13:04:14;12.95;;;11.65;;
44750;SDS011;30477;48.224;11.470;2022-08-20T13:06:40;13.00;;;11.80;;
44750;SDS011;30477;48.224;11.470;2022-08-20T13:09:05;12.80;;;11.40;;
44750;SDS011;30477;48.224;11.470;2022-08-20T13:11:30;14.47;;;11.60;;
44750;SDS011;30477;48.224;11.470;2022-08-20T13:13:57;13.95;;;12.20;;
44750;SDS011;30477;48.224;11.470;2022-08-20T13:16:23;13.50;;;12.18;;
44750;SDS011;30477;48.224;11.470;2022-08-20T13:18:48;15.17;;;12.30;;
44750;SDS011;30477;48.224;11.470;2022-08-20T13:21:13;13.17;;;11.97;;
44750;SDS011;30477;48.224;11.470;2022-08-20T13:23:39;12.82;;;11.02;;
44750;SDS011;30477;48.224;11.470;2022-08-20T13:26:05;12.60;;;11.20;;
44750;SDS011;30477;48.224;11.470;2022-08-20T13:28:31;11.55;;;10.45;;
44750;SDS011;30477;48.224;11.470;2022-08-20T13:30:56;11.30;;;10.13;;
44750;SDS011;30477;48.224;11.470;2022-08-20T13:33:22;11.68;;;10.27;;
44750;SDS011;30477;48.224;11.470;2022-08-20T13:35:50;11.40;;;10.25;;
44750;SDS011;30477;48.224;11.470;2022-08-20T13:38:15;11.00;;;9.75;;
44750;SDS011;30477;48.224;11.470;2022-08-20T13:40:41;11.77;;;10.67;;
44750;SDS011;30477;48.224;11.470;2022-08-20T13:43:07;11.07;;;9.95;;
44750;SDS011;30477;48.224;11.470;2022-08-20T13:45:32;15.87;;;13.27;;
44750;SDS011;30477;48.224;11.470;2022-08-20T13:47:58;14.65;;;9.35;;
44750;SDS011;30477;48.224;11.470;2022-08-20T13:50:24;11.90;;;9.23;;
44750;SDS011;30477;48.224;11.470;2022-08-20T13:55:15;9.85;;;8.75;;
44750;SDS011;30477;48.224;11.470;2022-08-20T13:57:43;8.30;;;7.35;;
44750;SDS011;30477;48.224;11.470;2022-08-20T14:00:10;7.93;;;7.18;;
44750;SDS011;30477;48.224;11.470;2022-08-20T14:02:38;8.65;;;7.85;;
44750;SDS011;30477;48.224;11.470;2022-08-20T14:05:05;8.32;;;7.50;;
44750;SDS011;30477;48.224;11.470;2022-08-20T14:07:31;6.20;;;3.83;;
44750;SDS011;30477;48.224;11.470;2022-08-20T14:09:58;4.73;;;3.70;;
44750;SDS011;30477;48.224;11.470;2022-08-20T14:12:25;6.07;;;3.55;;
44750;SDS011;30477;48.224;11.470;2022-08-20T14:14:52;4.82;;;3.35;;
44750;SDS011;30477;48.224;11.470;2022-08-20T14:17:19;4.40;;;4.00;;
44750;SDS011;30477;48.224;11.470;2022-08-20T14:19:49;4.05;;;3.65;;
44750;SDS011;30477;48.224;11.470;2022-08-20T14:22:17;7.07;;;4.88;;
44750;SDS011;30477;48.224;11.470;2022-08-20T14:24:43;4.28;;;3.88;;
44750;SDS011;30477;48.224;11.470;2022-08-20T14:27:09;4.38;;;3.97;;
44750;SDS011;30477;48.224;11.470;2022-08-20T14:29:36;3.67;;;3.20;;
44750;SDS011;30477;48.224;11.470;2022-08-20T14:32:04;3.70;;;3.40;;
44750;SDS011;30477;48.224;11.470;2022-08-20T14:34:30;4.03;;;3.38;;
44750;SDS011;30477;48.224;11.470;2022-08-20T14:36:56;3.38;;;3.08;;
44750;SDS011;30477;48.224;11.470;2022-08-20T14:41:49;3.90;;;3.42;;
44750;SDS011;30477;48.224;11.470;2022-08-20T14:44:15;3.15;;;2.83;;
44750;SDS011;30477;48.224;11.470;2022-08-20T14:46:40;5.23;;;3.10;;
44750;SDS011;30477;48.224;11.470;2022-08-20T14:49:06;4.90;;;3.20;;
44750;SDS011;30477;48.224;11.470;2022-08-20T14:51:31;4.60;;;3.00;;
44750;SDS011;30477;48.224;11.470;2022-08-20T14:53:56;4.80;;;3.50;;
44750;SDS011;30477;48.224;11.470;2022-08-20T14:56:22;5.43;;;4.35;;
44750;SDS011;30477;48.224;11.470;2022-08-20T14:58:47;7.97;;;3.97;;
44750;SDS011;30477;48.224;11.470;2022-08-20T15:01:13;5.53;;;3.10;;